createdAt,value
2022-08-07T00:01:12.480Z,4.73
2022-08-07T00:02:51.331Z,4.67
2022-08-07T00:04:16.095Z,4.23
2022-08-07T00:05:39.335Z,4.13
2022-08-07T00:07:05.048Z,3.93
2022-08-07T00:08:32.109Z,4.30
2022-08-07T00:10:19.280Z,4.43
2022-08-07T00:11:47.856Z,4.77
2022-08-07T00:13:25.598Z,5.37
2022-08-07T00:14:48.842Z,4.60
2022-08-07T00:16:11.334Z,5.10
2022-08-07T00:17:39.900Z,5.03
2022-08-07T00:19:03.598Z,6.33
2022-08-07T00:20:29.703Z,6.07
2022-08-07T00:22:02.066Z,5.40
2022-08-07T00:23:28.435Z,5.37
2022-08-07T00:24:52.395Z,4.50
2022-08-07T00:26:31.304Z,4.20
2022-08-07T00:27:56.921Z,4.23
2022-08-07T00:29:25.903Z,4.70
2022-08-07T00:30:53.644Z,5.00
2022-08-07T00:32:16.077Z,5.40
2022-08-07T00:33:39.526Z,4.73
2022-08-07T00:35:02.816Z,5.63
2022-08-07T00:36:25.155Z,4.30
2022-08-07T00:37:51.635Z,5.60
2022-08-07T00:39:16.951Z,4.83
2022-08-07T00:40:40.758Z,5.10
2022-08-07T00:42:05.264Z,5.30
2022-08-07T00:44:01.374Z,5.37
2022-08-07T00:45:10.951Z,3.93
2022-08-07T00:46:38.710Z,4.57
2022-08-07T00:48:07.908Z,4.57
2022-08-07T00:50:19.006Z,4.17
2022-08-07T00:51:15.533Z,5.43
2022-08-07T00:52:37.761Z,4.10
2022-08-07T00:54:03.850Z,4.80
2022-08-07T00:56:02.290Z,4.60
2022-08-07T00:57:11.463Z,4.23
2022-08-07T00:58:34.403Z,5.10
2022-08-07T00:59:56.791Z,4.70
2022-08-07T01:01:20.542Z,4.70
2022-08-07T01:02:43.114Z,4.43
2022-08-07T01:04:07.335Z,4.33
2022-08-07T01:05:31.708Z,4.60
2022-08-07T01:06:59.311Z,5.77
2022-08-07T01:08:21.865Z,4.37
2022-08-07T01:10:04.756Z,4.97
2022-08-07T01:12:09.387Z,4.70
2022-08-07T01:13:12.856Z,4.93
2022-08-07T01:14:38.865Z,4.60
2022-08-07T01:16:09.019Z,4.90
2022-08-07T01:17:32.975Z,4.63
2022-08-07T01:18:55.282Z,5.13
2022-08-07T01:20:22.565Z,5.20
2022-08-07T01:21:55.142Z,4.50
2022-08-07T01:23:18.114Z,4.77
2022-08-07T01:24:58.316Z,5.07
2022-08-07T01:26:22.902Z,4.53
2022-08-07T01:27:51.470Z,4.60
2022-08-07T01:29:14.337Z,4.43
2022-08-07T01:30:38.808Z,4.67
2022-08-07T01:32:05.514Z,4.57
2022-08-07T01:33:30.098Z,4.50
2022-08-07T01:35:12.322Z,4.40
2022-08-07T01:36:40.545Z,4.20
2022-08-07T01:38:03.490Z,4.50
2022-08-07T01:39:27.559Z,4.73
2022-08-07T01:41:04.554Z,4.70
2022-08-07T01:42:37.676Z,4.87
2022-08-07T01:44:02.506Z,4.80
2022-08-07T01:45:36.414Z,4.40
2022-08-07T01:48:17.831Z,5.30
2022-08-07T01:48:46.794Z,6.03
2022-08-07T01:50:10.252Z,5.63
2022-08-07T01:52:01.948Z,5.43
2022-08-07T01:54:09.508Z,6.30
2022-08-07T01:55:08.373Z,5.77
2022-08-07T01:57:09.401Z,5.30
2022-08-07T01:58:53.352Z,5.13
2022-08-07T02:00:16.664Z,6.37
2022-08-07T02:02:02.613Z,5.77
2022-08-07T02:03:32.142Z,5.13
2022-08-07T02:05:43.147Z,4.70
2022-08-07T02:07:03.114Z,5.73
2022-08-07T02:08:27.938Z,4.60
2022-08-07T02:09:58.612Z,5.10
2022-08-07T02:11:31.059Z,4.90
2022-08-07T02:13:04.788Z,4.60
2022-08-07T02:14:35.784Z,4.83
2022-08-07T02:16:02.326Z,4.60
2022-08-07T02:17:31.830Z,5.00
2022-08-07T02:18:56.872Z,4.83
2022-08-07T02:20:23.932Z,5.10
2022-08-07T02:21:56.678Z,4.70
2022-08-07T02:23:23.999Z,4.77
2022-08-07T02:24:49.192Z,4.93
2022-08-07T02:26:32.574Z,5.20
2022-08-07T02:27:56.868Z,4.87
2022-08-07T02:29:21.787Z,5.03
2022-08-07T02:30:45.476Z,4.40
2022-08-07T02:32:11.446Z,4.73
2022-08-07T02:34:01.421Z,3.90
2022-08-07T02:35:20.336Z,3.97
2022-08-07T02:37:08.890Z,4.67
2022-08-07T02:38:36.940Z,4.23
2022-08-07T02:40:02.217Z,4.40
2022-08-07T02:41:47.273Z,4.33
2022-08-07T02:43:14.610Z,4.33
2022-08-07T02:44:37.733Z,4.60
2022-08-07T02:46:05.437Z,4.23
2022-08-07T02:47:27.831Z,4.00
2022-08-07T02:48:57.531Z,4.30
2022-08-07T02:50:20.858Z,4.60
2022-08-07T02:51:51.920Z,4.90
2022-08-07T02:53:46.042Z,4.13
2022-08-07T02:55:28.601Z,4.30
2022-08-07T02:57:02.202Z,4.70
2022-08-07T02:58:33.342Z,4.20
2022-08-07T03:00:01.196Z,4.03
2022-08-07T03:01:35.358Z,4.57
2022-08-07T03:02:59.550Z,4.20
2022-08-07T03:04:23.336Z,3.83
2022-08-07T03:05:47.287Z,3.80
2022-08-07T03:07:12.348Z,4.20
2022-08-07T03:08:35.015Z,4.33
2022-08-07T03:09:57.519Z,4.17
2022-08-07T03:11:20.256Z,4.50
2022-08-07T03:12:51.157Z,4.33
2022-08-07T03:14:15.501Z,4.50
2022-08-07T03:15:55.534Z,5.10
2022-08-07T03:17:19.436Z,3.70
2022-08-07T03:18:44.372Z,3.70
2022-08-07T03:20:11.364Z,3.90
2022-08-07T03:21:35.098Z,4.57
2022-08-07T03:22:59.576Z,4.00
2022-08-07T03:24:26.838Z,4.27
2022-08-07T03:25:58.256Z,4.70
2022-08-07T03:27:30.609Z,4.03
2022-08-07T03:29:07.861Z,4.30
2022-08-07T03:30:34.159Z,4.20
2022-08-07T03:31:57.339Z,4.70
2022-08-07T03:33:21.069Z,4.30
2022-08-07T03:34:47.163Z,4.40
2022-08-07T03:36:26.610Z,4.23
2022-08-07T03:38:01.759Z,4.83
2022-08-07T03:40:00.021Z,4.37
2022-08-07T03:41:14.560Z,4.00
2022-08-07T03:42:39.478Z,4.50
2022-08-07T03:44:02.363Z,5.10
2022-08-07T03:45:29.927Z,4.03
2022-08-07T03:47:11.522Z,3.67
2022-08-07T03:48:45.596Z,4.00
2022-08-07T03:50:23.015Z,4.10
2022-08-07T03:51:55.051Z,4.60
2022-08-07T03:54:00.790Z,4.30
2022-08-07T03:55:06.966Z,4.43
2022-08-07T03:56:33.092Z,4.60
2022-08-07T03:58:33.260Z,3.90
2022-08-07T03:59:46.791Z,4.23
2022-08-07T04:01:24.140Z,3.53
2022-08-07T04:02:47.447Z,4.10
2022-08-07T04:04:17.078Z,3.77
2022-08-07T04:05:42.152Z,3.73
2022-08-07T04:07:17.535Z,4.10
2022-08-07T04:08:41.678Z,3.77
2022-08-07T04:10:05.782Z,4.60
2022-08-07T04:12:24.568Z,4.33
2022-08-07T04:13:22.999Z,4.00
2022-08-07T04:14:50.456Z,3.87
2022-08-07T04:16:13.076Z,3.80
2022-08-07T04:18:31.075Z,3.03
2022-08-07T04:19:50.837Z,3.30
2022-08-07T04:21:08.726Z,2.80
2022-08-07T04:22:31.908Z,3.20
2022-08-07T04:24:07.549Z,3.37
2022-08-07T04:25:31.450Z,3.50
2022-08-07T04:27:03.034Z,3.40
2022-08-07T04:28:26.554Z,3.63
2022-08-07T04:30:01.320Z,3.20
2022-08-07T04:31:39.294Z,3.20
2022-08-07T04:33:10.036Z,3.67
2022-08-07T04:34:39.403Z,3.63
2022-08-07T04:36:02.084Z,2.50
2022-08-07T04:37:28.885Z,2.57
2022-08-07T04:38:51.405Z,2.67
2022-08-07T04:40:13.594Z,2.73
2022-08-07T04:41:36.856Z,2.80
2022-08-07T04:43:02.189Z,2.70
2022-08-07T04:44:33.243Z,2.80
2022-08-07T04:46:25.754Z,3.10
2022-08-07T04:48:10.479Z,2.70
2022-08-07T04:49:57.353Z,2.80
2022-08-07T04:51:32.481Z,2.50
2022-08-07T04:53:04.934Z,2.20
2022-08-07T04:54:50.441Z,2.00
2022-08-07T04:58:16.094Z,3.37
2022-08-07T04:58:38.812Z,2.60
2022-08-07T05:00:11.888Z,2.60
2022-08-07T05:01:50.605Z,2.10
2022-08-07T05:04:00.152Z,2.70
2022-08-07T05:05:52.834Z,2.33
2022-08-07T05:07:36.570Z,2.40
2022-08-07T05:09:01.891Z,2.47
2022-08-07T05:11:09.121Z,2.20
2022-08-07T05:12:53.793Z,2.27
2022-08-07T05:14:54.446Z,2.63
2022-08-07T05:16:12.997Z,2.30
2022-08-07T05:17:51.624Z,2.50
2022-08-07T05:19:22.611Z,2.60
2022-08-07T05:20:58.897Z,2.07
2022-08-07T05:22:27.774Z,2.43
2022-08-07T05:23:59.170Z,2.30
2022-08-07T05:25:25.744Z,2.10
2022-08-07T05:27:18.379Z,2.40
2022-08-07T05:28:55.701Z,2.80
2022-08-07T05:30:21.220Z,2.60
2022-08-07T05:31:56.369Z,2.50
2022-08-07T05:33:21.542Z,2.30
2022-08-07T05:34:44.085Z,2.43
2022-08-07T05:36:12.058Z,2.30
2022-08-07T05:37:45.215Z,2.10
2022-08-07T05:40:07.345Z,2.03
2022-08-07T05:40:51.740Z,2.07
2022-08-07T05:42:15.082Z,1.90
2022-08-07T05:44:12.079Z,2.70
2022-08-07T05:45:47.307Z,2.03
2022-08-07T05:47:18.564Z,2.20
2022-08-07T05:48:58.454Z,2.10
2022-08-07T05:50:23.323Z,2.53
2022-08-07T05:51:47.069Z,2.23
2022-08-07T05:54:13.134Z,2.33
2022-08-07T05:54:56.025Z,1.63
2022-08-07T05:56:29.898Z,2.30
2022-08-07T05:57:54.173Z,2.00
2022-08-07T05:59:19.312Z,2.10
2022-08-07T06:00:46.571Z,2.20
2022-08-07T06:02:22.555Z,2.20
2022-08-07T06:03:59.001Z,2.20
2022-08-07T06:05:28.719Z,2.53
2022-08-07T06:06:56.726Z,2.73
2022-08-07T06:08:30.786Z,2.17
2022-08-07T06:10:05.199Z,2.67
2022-08-07T06:11:28.723Z,2.10
2022-08-07T06:12:51.371Z,1.90
2022-08-07T06:14:20.925Z,2.43
2022-08-07T06:15:45.632Z,2.70
2022-08-07T06:17:14.178Z,2.47
2022-08-07T06:18:37.165Z,2.37
2022-08-07T06:20:04.506Z,2.33
2022-08-07T06:22:15.936Z,2.10
2022-08-07T06:23:46.741Z,2.50
2022-08-07T06:25:01.000Z,2.20
2022-08-07T06:26:27.282Z,2.17
2022-08-07T06:28:01.706Z,2.40
2022-08-07T06:29:28.687Z,2.53
2022-08-07T06:30:52.919Z,3.57
2022-08-07T06:32:15.308Z,3.40
2022-08-07T06:33:38.824Z,2.27
2022-08-07T06:35:01.006Z,3.30
2022-08-07T06:36:34.981Z,2.40
2022-08-07T06:37:58.247Z,2.50
2022-08-07T06:40:16.702Z,2.53
2022-08-07T06:41:09.721Z,2.47
2022-08-07T06:42:39.539Z,2.57
2022-08-07T06:44:10.731Z,2.80
2022-08-07T06:45:35.805Z,2.30
2022-08-07T06:47:09.882Z,2.70
2022-08-07T06:48:32.905Z,2.60
2022-08-07T06:49:58.767Z,2.40
2022-08-07T06:51:33.122Z,2.37
2022-08-07T06:52:58.303Z,2.77
2022-08-07T06:55:33.881Z,2.27
2022-08-07T06:56:15.173Z,2.77
2022-08-07T06:57:39.639Z,2.43
2022-08-07T07:00:13.123Z,2.43
2022-08-07T07:01:05.941Z,2.70
2022-08-07T07:02:53.942Z,2.60
2022-08-07T07:04:32.957Z,2.40
2022-08-07T07:06:04.772Z,2.30
2022-08-07T07:07:58.999Z,2.20
2022-08-07T07:09:31.152Z,2.03
2022-08-07T07:10:56.660Z,3.00
2022-08-07T07:12:30.742Z,2.33
2022-08-07T07:14:01.267Z,2.40
2022-08-07T07:15:36.114Z,2.70
2022-08-07T07:17:04.586Z,2.10
2022-08-07T07:18:48.356Z,2.13
2022-08-07T07:20:21.783Z,2.30
2022-08-07T07:22:05.328Z,2.83
2022-08-07T07:24:08.642Z,2.50
2022-08-07T07:26:35.031Z,2.03
2022-08-07T07:26:57.871Z,2.00
2022-08-07T07:28:48.407Z,1.90
2022-08-07T07:30:32.654Z,2.10
2022-08-07T07:31:57.363Z,1.70
2022-08-07T07:33:22.824Z,2.00
2022-08-07T07:34:50.790Z,2.10
2022-08-07T07:36:17.349Z,2.30
2022-08-07T07:37:47.398Z,2.03
2022-08-07T07:39:16.165Z,1.83
2022-08-07T07:40:41.514Z,1.43
2022-08-07T07:42:13.520Z,3.10
2022-08-07T07:44:14.130Z,2.63
2022-08-07T07:46:37.611Z,2.57
2022-08-07T07:47:23.622Z,1.90
2022-08-07T07:48:48.258Z,1.90
2022-08-07T07:50:35.611Z,1.87
2022-08-07T07:51:58.520Z,2.27
2022-08-07T07:53:25.837Z,1.87
2022-08-07T07:54:51.094Z,2.17
2022-08-07T07:56:15.879Z,1.73
2022-08-07T07:57:51.683Z,2.23
2022-08-07T07:59:16.510Z,1.83
2022-08-07T08:00:39.747Z,1.90
2022-08-07T08:02:10.521Z,1.90
2022-08-07T08:04:10.162Z,2.77
2022-08-07T08:05:18.685Z,1.80
2022-08-07T08:06:50.788Z,1.87
2022-08-07T08:08:35.417Z,2.00
2022-08-07T08:10:05.049Z,1.70
2022-08-07T08:12:00.007Z,3.00
2022-08-07T08:13:15.244Z,2.30
2022-08-07T08:14:37.670Z,2.23
2022-08-07T08:16:04.903Z,2.33
2022-08-07T08:17:56.564Z,2.00
2022-08-07T08:19:18.091Z,2.00
2022-08-07T08:21:02.557Z,2.90
2022-08-07T08:22:54.298Z,2.00
2022-08-07T08:24:45.580Z,1.87
2022-08-07T08:26:30.562Z,2.10
2022-08-07T08:28:03.819Z,1.97
2022-08-07T08:29:27.469Z,2.37
2022-08-07T08:30:58.072Z,2.53
2022-08-07T08:32:25.608Z,2.63
2022-08-07T08:34:04.134Z,1.93
2022-08-07T08:35:28.677Z,1.93
2022-08-07T08:36:57.826Z,2.17
2022-08-07T08:38:25.795Z,1.80
2022-08-07T08:39:54.989Z,2.00
2022-08-07T08:41:57.449Z,1.83
2022-08-07T08:43:42.682Z,2.40
2022-08-07T08:45:59.563Z,2.30
2022-08-07T08:47:55.401Z,1.90
2022-08-07T08:49:46.456Z,2.47
2022-08-07T08:52:12.707Z,2.00
2022-08-07T08:53:19.600Z,1.80
2022-08-07T08:54:49.292Z,2.13
2022-08-07T08:56:24.712Z,1.60
2022-08-07T08:58:06.449Z,1.57
2022-08-07T08:59:48.460Z,1.90
2022-08-07T09:01:29.772Z,2.20
2022-08-07T09:03:11.623Z,1.83
2022-08-07T09:04:51.304Z,1.80
2022-08-07T09:06:42.656Z,1.77
2022-08-07T09:08:39.888Z,2.30
2022-08-07T09:10:14.559Z,1.97
2022-08-07T09:11:54.179Z,2.50
2022-08-07T09:13:40.500Z,2.10
2022-08-07T09:16:22.085Z,2.20
2022-08-07T09:17:13.753Z,2.37
2022-08-07T09:19:51.441Z,2.20
2022-08-07T09:21:33.813Z,2.10
2022-08-07T09:24:33.476Z,2.00
2022-08-07T09:25:31.470Z,2.00
2022-08-07T09:27:19.764Z,2.20
2022-08-07T09:30:04.214Z,2.37
2022-08-07T09:30:46.303Z,2.07
2022-08-07T09:32:40.220Z,2.03
2022-08-07T09:34:22.391Z,2.63
2022-08-07T09:36:07.858Z,2.90
2022-08-07T09:37:48.178Z,2.30
2022-08-07T09:39:54.016Z,2.13
2022-08-07T09:41:36.398Z,2.40
2022-08-07T09:43:40.181Z,2.50
2022-08-07T09:47:49.987Z,1.70
2022-08-07T09:47:55.664Z,1.97
2022-08-07T09:50:02.458Z,1.60
2022-08-07T09:52:15.822Z,1.93
2022-08-07T09:53:14.287Z,1.63
2022-08-07T09:54:54.421Z,2.00
2022-08-07T09:56:47.999Z,1.90
2022-08-07T09:58:38.724Z,1.77
2022-08-07T10:00:08.280Z,1.57
2022-08-07T10:02:20.031Z,1.90
2022-08-07T10:04:05.371Z,1.80
2022-08-07T10:05:59.662Z,1.93
2022-08-07T10:07:52.779Z,1.90
2022-08-07T10:09:23.605Z,1.67
2022-08-07T10:12:03.397Z,1.70
2022-08-07T10:13:55.265Z,1.60
2022-08-07T10:15:37.561Z,1.90
2022-08-07T10:17:30.959Z,1.80
2022-08-07T10:19:20.856Z,1.70
2022-08-07T10:21:19.560Z,2.67
2022-08-07T10:22:51.685Z,1.67
2022-08-07T10:24:33.344Z,1.53
2022-08-07T10:26:24.854Z,1.50
2022-08-07T10:27:57.326Z,1.77
2022-08-07T10:30:16.325Z,1.70
2022-08-07T10:31:53.234Z,1.90
2022-08-07T10:34:06.034Z,2.07
2022-08-07T10:35:55.097Z,1.63
2022-08-07T10:37:59.944Z,1.50
2022-08-07T10:39:42.255Z,1.63
2022-08-07T10:41:47.226Z,2.00
2022-08-07T10:43:13.341Z,1.70
2022-08-07T10:44:52.368Z,1.87
2022-08-07T10:46:20.987Z,1.80
2022-08-07T10:48:05.174Z,1.63
2022-08-07T10:49:50.775Z,1.93
2022-08-07T10:51:39.054Z,2.37
2022-08-07T10:53:07.994Z,1.70
2022-08-07T10:54:38.227Z,1.63
2022-08-07T10:56:09.722Z,1.37
2022-08-07T10:58:04.363Z,1.57
2022-08-07T11:00:06.854Z,1.83
2022-08-07T11:01:51.379Z,1.37
2022-08-07T11:03:55.067Z,1.80
2022-08-07T11:05:50.522Z,1.50
2022-08-07T11:07:58.952Z,2.10
2022-08-07T11:10:10.303Z,1.60
2022-08-07T11:11:37.718Z,1.50
2022-08-07T11:13:42.451Z,1.80
2022-08-07T11:14:59.975Z,1.83
2022-08-07T11:16:49.426Z,1.60
2022-08-07T11:18:27.841Z,1.40
2022-08-07T11:20:45.256Z,1.50
2022-08-07T11:22:37.043Z,1.80
2022-08-07T11:24:28.873Z,1.63
2022-08-07T11:26:06.005Z,1.67
2022-08-07T11:28:01.238Z,1.70
2022-08-07T11:29:47.407Z,2.00
2022-08-07T11:31:26.778Z,1.37
2022-08-07T11:33:14.997Z,1.77
2022-08-07T11:34:44.052Z,1.77
2022-08-07T11:36:45.440Z,1.80
2022-08-07T11:38:50.483Z,2.30
2022-08-07T11:40:45.295Z,1.43
2022-08-07T11:42:18.881Z,1.40
2022-08-07T11:44:11.138Z,1.70
2022-08-07T11:45:57.034Z,1.77
2022-08-07T11:48:18.014Z,1.37
2022-08-07T11:50:31.571Z,1.17
2022-08-07T11:51:49.101Z,1.10
2022-08-07T11:53:43.108Z,1.30
2022-08-07T11:56:09.527Z,1.33
2022-08-07T11:58:03.960Z,1.30
2022-08-07T12:00:11.995Z,1.17
2022-08-07T12:01:59.927Z,1.40
2022-08-07T12:03:42.117Z,1.47
2022-08-07T12:05:47.531Z,1.60
2022-08-07T12:07:44.814Z,2.00
2022-08-07T12:09:37.566Z,1.90
2022-08-07T12:11:20.402Z,1.40
2022-08-07T12:12:53.392Z,1.70
2022-08-07T12:14:23.907Z,2.20
2022-08-07T12:16:05.788Z,1.60
2022-08-07T12:17:58.716Z,1.60
2022-08-07T12:19:35.738Z,1.50
2022-08-07T12:22:36.005Z,1.93
2022-08-07T12:24:07.297Z,1.70
2022-08-07T12:26:22.201Z,1.77
2022-08-07T12:28:04.045Z,1.70
2022-08-07T12:29:40.371Z,1.23
2022-08-07T12:31:52.771Z,1.40
2022-08-07T12:33:28.271Z,1.60
2022-08-07T12:34:55.930Z,1.77
2022-08-07T12:36:32.927Z,1.30
2022-08-07T12:38:11.289Z,1.70
2022-08-07T12:39:51.074Z,1.73
2022-08-07T12:41:16.076Z,1.70
2022-08-07T12:42:55.003Z,1.60
2022-08-07T12:44:21.234Z,2.00
2022-08-07T12:45:56.045Z,1.40
2022-08-07T12:48:13.210Z,1.50
2022-08-07T12:50:39.347Z,1.60
2022-08-07T12:52:18.202Z,1.60
2022-08-07T12:54:03.358Z,1.70
2022-08-07T12:56:09.260Z,2.00
2022-08-07T12:58:01.327Z,1.50
2022-08-07T12:59:22.512Z,2.00
2022-08-07T13:01:14.216Z,1.57
2022-08-07T13:03:13.058Z,1.70
2022-08-07T13:05:14.946Z,1.70
2022-08-07T13:07:09.364Z,1.60
2022-08-07T13:10:19.372Z,1.77
2022-08-07T13:12:03.370Z,1.60
2022-08-07T13:13:48.062Z,1.57
2022-08-07T13:15:35.818Z,1.57
2022-08-07T13:17:11.789Z,1.70
2022-08-07T13:18:52.995Z,2.00
2022-08-07T13:20:30.718Z,1.73
2022-08-07T13:22:26.920Z,1.80
2022-08-07T13:24:18.553Z,1.57
2022-08-07T13:25:50.937Z,1.80
2022-08-07T13:28:11.077Z,1.50
2022-08-07T13:29:26.855Z,1.90
2022-08-07T13:31:06.426Z,1.63
2022-08-07T13:32:46.080Z,1.80
2022-08-07T13:34:34.125Z,1.70
2022-08-07T13:36:05.603Z,1.70
2022-08-07T13:37:55.575Z,1.73
2022-08-07T13:39:49.827Z,1.80
2022-08-07T13:41:35.645Z,1.80
2022-08-07T13:43:12.077Z,1.73
2022-08-07T13:44:38.822Z,1.63
2022-08-07T13:46:11.225Z,1.80
2022-08-07T13:48:06.556Z,2.20
2022-08-07T13:50:35.277Z,1.80
2022-08-07T13:51:28.329Z,2.07
2022-08-07T13:53:03.729Z,1.83
2022-08-07T13:54:33.454Z,1.93
2022-08-07T13:55:58.528Z,1.60
2022-08-07T13:57:27.328Z,1.73
2022-08-07T13:59:02.308Z,1.77
2022-08-07T14:00:50.361Z,1.60
2022-08-07T14:02:29.667Z,1.97
2022-08-07T14:04:06.727Z,1.43
2022-08-07T14:05:38.159Z,1.73
2022-08-07T14:07:09.152Z,1.70
2022-08-07T14:08:34.161Z,2.20
2022-08-07T14:10:17.713Z,1.47
2022-08-07T14:12:01.133Z,1.90
2022-08-07T14:13:33.213Z,1.80
2022-08-07T14:15:01.787Z,1.90
2022-08-07T14:16:34.267Z,2.27
2022-08-07T14:18:28.370Z,1.90
2022-08-07T14:20:40.308Z,1.73
2022-08-07T14:22:02.520Z,1.67
2022-08-07T14:24:00.369Z,1.70
2022-08-07T14:25:19.215Z,1.43
2022-08-07T14:26:52.389Z,1.70
2022-08-07T14:28:16.860Z,1.93
2022-08-07T14:30:06.431Z,2.10
2022-08-07T14:31:43.116Z,2.03
2022-08-07T14:33:15.141Z,1.63
2022-08-07T14:34:46.453Z,2.53
2022-08-07T14:36:10.384Z,1.93
2022-08-07T14:37:40.077Z,2.10
2022-08-07T14:39:04.750Z,1.90
2022-08-07T14:40:35.073Z,1.80
2022-08-07T14:42:18.670Z,1.80
2022-08-07T14:43:57.060Z,1.90
2022-08-07T14:45:25.405Z,2.03
2022-08-07T14:47:14.641Z,1.90
2022-08-07T14:48:41.558Z,1.90
2022-08-07T14:50:11.301Z,2.10
2022-08-07T14:53:49.986Z,2.00
2022-08-07T14:55:06.080Z,2.00
2022-08-07T14:56:32.652Z,1.70
2022-08-07T15:00:05.322Z,2.00
2022-08-07T15:01:42.949Z,1.70
2022-08-07T15:03:18.850Z,1.80
2022-08-07T15:04:53.272Z,2.03
2022-08-07T15:06:21.129Z,1.93
2022-08-07T15:09:59.014Z,2.07
2022-08-07T15:11:53.317Z,2.23
2022-08-07T15:13:06.317Z,2.30
2022-08-07T15:14:35.294Z,2.10
2022-08-07T15:20:32.475Z,1.73
2022-08-07T15:22:03.970Z,2.30
2022-08-07T15:25:14.273Z,1.70
2022-08-07T15:25:19.331Z,1.90
2022-08-07T15:26:45.754Z,2.60
2022-08-07T15:28:34.616Z,1.80
2022-08-07T15:30:08.643Z,1.87
2022-08-07T15:32:00.454Z,1.97
2022-08-07T15:33:20.270Z,2.00
2022-08-07T15:34:50.432Z,2.00
2022-08-07T15:38:30.193Z,2.10
2022-08-07T15:40:03.908Z,2.47
2022-08-07T15:42:46.674Z,2.10
2022-08-07T15:43:33.222Z,2.20
2022-08-07T15:45:57.442Z,2.40
2022-08-07T15:47:19.722Z,2.00
2022-08-07T15:50:37.669Z,2.20
2022-08-07T15:52:29.695Z,2.20
2022-08-07T15:53:57.342Z,2.13
2022-08-07T15:55:20.684Z,2.60
2022-08-07T15:56:48.207Z,1.90
2022-08-07T15:58:19.310Z,2.17
2022-08-07T15:59:46.042Z,2.63
2022-08-07T16:01:38.487Z,2.40
2022-08-07T16:03:05.315Z,2.00
2022-08-07T16:04:33.498Z,2.30
2022-08-07T16:05:57.441Z,2.13
2022-08-07T16:08:30.421Z,1.87
2022-08-07T16:09:42.126Z,2.30
2022-08-07T16:11:27.265Z,1.97
2022-08-07T16:13:57.544Z,2.00
2022-08-07T16:15:55.120Z,2.10
2022-08-07T16:18:02.134Z,1.67
2022-08-07T16:19:16.500Z,1.80
2022-08-07T16:22:02.143Z,1.67
2022-08-07T16:23:53.205Z,2.00
2022-08-07T16:25:02.573Z,2.23
2022-08-07T16:26:59.576Z,2.23
2022-08-07T16:30:06.514Z,2.40
2022-08-07T16:30:30.696Z,2.37
2022-08-07T16:32:32.988Z,1.80
2022-08-07T16:34:01.833Z,2.27
2022-08-07T16:35:51.455Z,1.93
2022-08-07T16:38:07.109Z,2.10
2022-08-07T16:40:23.065Z,1.90
2022-08-07T16:42:21.601Z,2.60
2022-08-07T16:44:04.189Z,2.00
2022-08-07T16:47:04.929Z,2.90
2022-08-07T16:48:34.450Z,2.00
2022-08-07T16:50:35.740Z,2.23
2022-08-07T16:52:51.669Z,2.33
2022-08-07T16:54:13.137Z,2.03
2022-08-07T16:56:05.653Z,2.33
2022-08-07T16:58:02.576Z,2.07
2022-08-07T16:59:51.137Z,1.70
2022-08-07T17:01:34.948Z,2.30
2022-08-07T17:03:07.119Z,2.07
2022-08-07T17:04:50.945Z,2.07
2022-08-07T17:06:58.006Z,2.23
2022-08-07T17:09:04.269Z,2.30
2022-08-07T17:10:54.574Z,2.90
2022-08-07T17:12:44.565Z,3.40
2022-08-07T17:14:19.279Z,7.60
2022-08-07T17:16:06.301Z,5.60
2022-08-07T17:18:02.631Z,5.90
2022-08-07T17:20:02.105Z,5.53
2022-08-07T17:21:52.290Z,6.80
2022-08-07T17:23:32.508Z,5.37
2022-08-07T17:25:20.098Z,3.33
2022-08-07T17:27:11.735Z,2.70
2022-08-07T17:29:04.688Z,2.57
2022-08-07T17:30:48.938Z,2.73
2022-08-07T17:32:58.753Z,2.37
2022-08-07T17:34:34.554Z,2.40
2022-08-07T17:36:05.220Z,2.20
2022-08-07T17:38:06.491Z,2.40
2022-08-07T17:39:52.980Z,2.03
2022-08-07T17:42:01.628Z,2.10
2022-08-07T17:44:01.841Z,2.20
2022-08-07T17:45:23.549Z,2.30
2022-08-07T17:47:03.376Z,2.17
2022-08-07T17:48:31.851Z,2.30
2022-08-07T17:49:59.687Z,2.50
2022-08-07T17:51:49.368Z,2.13
2022-08-07T17:54:00.751Z,1.80
2022-08-07T17:55:59.998Z,2.27
2022-08-07T17:57:59.300Z,2.50
2022-08-07T17:59:35.609Z,2.50
2022-08-07T18:01:02.702Z,2.77
2022-08-07T18:03:18.533Z,2.33
2022-08-07T18:05:01.322Z,2.97
2022-08-07T18:07:19.271Z,2.30
2022-08-07T18:09:01.786Z,2.67
2022-08-07T18:10:33.631Z,2.60
2022-08-07T18:12:28.700Z,2.50
2022-08-07T18:14:04.773Z,2.30
2022-08-07T18:15:38.352Z,1.80
2022-08-07T18:17:10.819Z,2.20
2022-08-07T18:21:04.159Z,2.43
2022-08-07T18:21:07.526Z,2.40
2022-08-07T18:22:26.200Z,3.13
2022-08-07T18:23:58.400Z,2.17
2022-08-07T18:25:40.400Z,2.47
2022-08-07T18:27:26.097Z,2.40
2022-08-07T18:29:06.076Z,2.10
2022-08-07T18:31:06.076Z,1.97
2022-08-07T18:33:10.782Z,2.47
2022-08-07T18:35:11.811Z,2.37
2022-08-07T18:36:54.419Z,2.43
2022-08-07T18:38:55.184Z,2.50
2022-08-07T18:40:50.086Z,3.27
2022-08-07T18:42:36.657Z,2.47
2022-08-07T18:44:08.575Z,2.10
2022-08-07T18:46:21.655Z,2.70
2022-08-07T18:47:44.495Z,2.57
2022-08-07T18:50:31.520Z,2.60
2022-08-07T18:52:40.799Z,2.93
2022-08-07T18:53:46.608Z,2.37
2022-08-07T18:55:43.328Z,3.17
2022-08-07T18:57:30.184Z,2.90
2022-08-07T18:59:47.684Z,3.03
2022-08-07T19:02:18.343Z,3.93
2022-08-07T19:03:38.116Z,2.90
2022-08-07T19:05:22.337Z,3.00
2022-08-07T19:06:53.152Z,2.10
2022-08-07T19:08:22.642Z,2.40
2022-08-07T19:09:59.108Z,2.57
2022-08-07T19:11:38.079Z,2.37
2022-08-07T19:13:35.239Z,2.70
2022-08-07T19:16:02.739Z,2.80
2022-08-07T19:18:01.087Z,2.30
2022-08-07T19:19:14.295Z,2.40
2022-08-07T19:21:10.077Z,2.40
2022-08-07T19:22:52.282Z,2.03
2022-08-07T19:24:29.954Z,2.57
2022-08-07T19:26:25.102Z,2.77
2022-08-07T19:28:58.488Z,2.70
2022-08-07T19:30:59.993Z,2.70
2022-08-07T19:31:38.958Z,3.17
2022-08-07T19:33:10.111Z,2.93
2022-08-07T19:34:38.476Z,3.20
2022-08-07T19:36:01.827Z,2.63
2022-08-07T19:37:25.257Z,2.90
2022-08-07T19:39:09.490Z,2.73
2022-08-07T19:40:38.107Z,2.60
2022-08-07T19:42:22.386Z,2.80
2022-08-07T19:43:52.186Z,3.07
2022-08-07T19:46:05.716Z,2.40
2022-08-07T19:47:11.893Z,2.70
2022-08-07T19:48:44.163Z,2.63
2022-08-07T19:50:44.189Z,2.60
2022-08-07T19:52:00.592Z,3.17
2022-08-07T19:54:32.371Z,2.47
2022-08-07T19:55:10.968Z,2.67
2022-08-07T19:57:52.368Z,2.27
2022-08-07T19:58:28.341Z,2.60
2022-08-07T20:00:08.919Z,3.30
2022-08-07T20:01:52.877Z,2.93
2022-08-07T20:03:35.769Z,3.00
2022-08-07T20:05:02.622Z,3.83
2022-08-07T20:06:31.090Z,3.10
2022-08-07T20:08:00.089Z,3.00
2022-08-07T20:10:33.404Z,3.13
2022-08-07T20:11:15.178Z,2.93
2022-08-07T20:12:58.946Z,3.33
2022-08-07T20:14:32.696Z,3.00
2022-08-07T20:15:58.190Z,3.60
2022-08-07T20:17:23.269Z,2.90
2022-08-07T20:18:47.307Z,3.30
2022-08-07T20:20:11.027Z,3.50
2022-08-07T20:21:42.316Z,3.13
2022-08-07T20:23:32.864Z,3.87
2022-08-07T20:25:03.089Z,4.73
2022-08-07T20:26:38.561Z,7.70
2022-08-07T20:28:07.640Z,7.93
2022-08-07T20:29:47.950Z,7.30
2022-08-07T20:31:21.906Z,5.40
2022-08-07T20:32:47.011Z,5.60
2022-08-07T20:34:10.130Z,4.93
2022-08-07T20:35:51.981Z,5.80
2022-08-07T20:37:25.657Z,4.33
2022-08-07T20:39:00.728Z,3.60
2022-08-07T20:40:32.228Z,4.67
2022-08-07T20:41:58.248Z,4.80
2022-08-07T20:43:25.757Z,4.00
2022-08-07T20:44:52.365Z,4.53
2022-08-07T20:46:26.007Z,3.20
2022-08-07T20:47:58.266Z,3.83
2022-08-07T20:49:59.148Z,3.70
2022-08-07T20:51:09.267Z,3.20
2022-08-07T20:52:51.721Z,3.80
2022-08-07T20:54:32.076Z,3.87
2022-08-07T20:55:59.269Z,3.70
2022-08-07T20:57:25.039Z,3.90
2022-08-07T20:58:53.141Z,3.20
2022-08-07T21:00:21.275Z,3.80
2022-08-07T21:01:55.170Z,3.70
2022-08-07T21:03:26.029Z,2.90
2022-08-07T21:04:49.585Z,4.13
2022-08-07T21:06:25.813Z,4.60
2022-08-07T21:07:51.827Z,4.30
2022-08-07T21:09:19.919Z,4.50
2022-08-07T21:10:50.242Z,4.23
2022-08-07T21:12:15.169Z,3.90
2022-08-07T21:13:43.766Z,3.73
2022-08-07T21:15:21.955Z,3.23
2022-08-07T21:18:17.524Z,3.50
2022-08-07T21:19:00.060Z,4.27
2022-08-07T21:20:29.452Z,3.83
2022-08-07T21:21:57.427Z,3.70
2022-08-07T21:23:42.816Z,3.97
2022-08-07T21:25:38.883Z,4.10
2022-08-07T21:27:25.614Z,4.30
2022-08-07T21:28:54.727Z,4.10
2022-08-07T21:30:24.232Z,3.40
2022-08-07T21:32:47.886Z,4.17
2022-08-07T21:34:02.881Z,4.03
2022-08-07T21:36:00.010Z,3.90
2022-08-07T21:37:58.275Z,3.47
2022-08-07T21:39:45.192Z,3.63
2022-08-07T21:41:27.240Z,3.77
2022-08-07T21:43:05.168Z,4.17
2022-08-07T21:44:51.076Z,3.60
2022-08-07T21:46:24.979Z,3.43
2022-08-07T21:48:29.157Z,3.97
2022-08-07T21:50:19.554Z,3.27
2022-08-07T21:51:51.033Z,4.10
2022-08-07T21:53:20.406Z,3.63
2022-08-07T21:54:50.804Z,3.37
2022-08-07T21:56:16.784Z,4.20
2022-08-07T21:58:30.114Z,3.47
2022-08-07T22:00:04.519Z,3.90
2022-08-07T22:02:10.769Z,3.50
2022-08-07T22:03:43.880Z,4.13
2022-08-07T22:05:08.583Z,3.47
2022-08-07T22:06:54.787Z,3.20
2022-08-07T22:08:21.385Z,3.53
2022-08-07T22:09:54.006Z,3.30
2022-08-07T22:11:19.638Z,3.83